Time;durP1;ratioP1;P1;durP2;ratioP2;P2;SDS_P1;SDS_P2;PMS_P1;PMS_P2;Temp;Humidity;BMP_temperature;BMP_pressure;BME280_temperature;BME280_humidity;BME280_pressure;Samples;Min_cycle;Max_cycle;Signal;HPM_P1;HPM_P2
2022/04/25 00:01:41;;;;;;;19.75;13.10;;;;;;;;;;5090960;28;20047;-74
2022/04/25 00:04:08;;;;;;;21.90;14.40;;;;;;;;;;5082556;28;20096;-74
2022/04/25 00:06:34;;;;;;;20.80;14.05;;;;;;;;;;5093428;28;20054;-74
2022/04/25 00:09:00;;;;;;;20.08;13.93;;;;;;;;;;5075462;28;20504;-74
2022/04/25 00:11:26;;;;;;;19.58;13.20;;;;;;;;;;5093732;28;20043;-74
2022/04/25 00:13:53;;;;;;;22.63;15.07;;;;;;;;;;5088909;28;20035;-74
2022/04/25 00:16:19;;;;;;;21.20;13.63;;;;;;;;;;5082792;28;20039;-74
2022/04/25 00:18:47;;;;;;;19.50;14.18;;;;;;;;;;5092840;28;20486;-74
2022/04/25 00:21:13;;;;;;;20.77;14.43;;;;;;;;;;5113875;27;20097;-74
2022/04/25 00:23:39;;;;;;;19.75;14.20;;;;;;;;;;5093322;28;20048;-74
2022/04/25 00:26:06;;;;;;;23.30;14.57;;;;;;;;;;5085653;28;20044;-74
2022/04/25 00:28:32;;;;;;;22.77;14.60;;;;;;;;;;5086290;28;20079;-74
2022/04/25 00:30:58;;;;;;;19.90;14.63;;;;;;;;;;5090856;28;20035;-74
2022/04/25 00:33:26;;;;;;;21.42;14.75;;;;;;;;;;5078424;28;20113;-74
2022/04/25 00:35:52;;;;;;;19.00;14.27;;;;;;;;;;5092407;28;20039;-74
2022/04/25 00:38:19;;;;;;;19.90;13.82;;;;;;;;;;5070771;28;20047;-74
2022/04/25 00:40:46;;;;;;;20.95;14.18;;;;;;;;;;5123588;27;20119;-74
2022/04/25 00:43:12;;;;;;;19.75;14.07;;;;;;;;;;5086531;28;20159;-74
2022/04/25 00:45:38;;;;;;;21.67;14.55;;;;;;;;;;5081056;28;20074;-74
2022/04/25 00:48:11;;;;;;;19.65;13.32;;;;;;;;;;5090458;28;20044;-74
2022/04/25 00:50:39;;;;;;;22.08;14.75;;;;;;;;;;5091830;28;20051;-74
2022/04/25 00:53:05;;;;;;;22.02;14.68;;;;;;;;;;5089298;28;20078;-74
2022/04/25 00:55:31;;;;;;;20.42;15.20;;;;;;;;;;5075508;28;20043;-74
2022/04/25 00:57:58;;;;;;;20.15;15.15;;;;;;;;;;5089491;28;20027;-74
2022/04/25 01:00:25;;;;;;;21.70;15.20;;;;;;;;;;5092656;28;20043;-74
2022/04/25 01:02:51;;;;;;;22.00;14.95;;;;;;;;;;5092218;28;20035;-73
2022/04/25 01:05:18;;;;;;;22.67;15.00;;;;;;;;;;5090922;28;20071;-74
2022/04/25 01:07:44;;;;;;;24.40;15.88;;;;;;;;;;5092621;28;20031;-74
2022/04/25 01:10:11;;;;;;;22.02;14.93;;;;;;;;;;5089193;28;20051;-74
2022/04/25 01:12:37;;;;;;;23.05;14.93;;;;;;;;;;5076084;28;20514;-74
2022/04/25 01:15:05;;;;;;;20.35;15.05;;;;;;;;;;5091180;28;20242;-74
2022/04/25 01:17:31;;;;;;;24.20;15.95;;;;;;;;;;5091140;28;20043;-74
2022/04/25 01:19:57;;;;;;;22.52;15.30;;;;;;;;;;5092149;28;20134;-74
2022/04/25 01:22:30;;;;;;;20.10;14.00;;;;;;;;;;5088713;28;20532;-74
2022/04/25 01:27:40;;;;;;;21.95;16.20;;;;;;;;;;5089853;28;20055;-74
2022/04/25 01:30:09;;;;;;;23.65;16.10;;;;;;;;;;5075194;28;20448;-74
2022/04/25 01:32:36;;;;;;;22.77;15.23;;;;;;;;;;5089234;28;20048;-73
2022/04/25 01:35:06;;;;;;;22.77;14.73;;;;;;;;;;5091049;28;20087;-74
2022/04/25 01:37:32;;;;;;;22.55;15.18;;;;;;;;;;5073671;28;20642;-73
2022/04/25 01:39:59;;;;;;;20.80;14.73;;;;;;;;;;5092036;28;20051;-74
2022/04/25 01:42:25;;;;;;;21.98;14.73;;;;;;;;;;5089016;28;20035;-74
2022/04/25 01:44:52;;;;;;;23.20;14.95;;;;;;;;;;5091758;28;20455;-74
2022/04/25 01:47:19;;;;;;;21.75;15.43;;;;;;;;;;5091112;28;20040;-74
2022/04/25 01:49:45;;;;;;;21.38;15.23;;;;;;;;;;5085267;28;20092;-73
2022/04/25 01:52:20;;;;;;;23.75;14.98;;;;;;;;;;5091666;28;20487;-74
2022/04/25 01:54:47;;;;;;;19.67;13.68;;;;;;;;;;5082338;28;20048;-73
2022/04/25 01:57:13;;;;;;;20.38;14.60;;;;;;;;;;5086162;28;20712;-74
2022/04/25 01:59:39;;;;;;;20.27;14.15;;;;;;;;;;5088647;28;20042;-74
2022/04/25 02:02:06;;;;;;;23.05;15.38;;;;;;;;;;5124654;27;20046;-74
2022/04/25 02:04:32;;;;;;;20.55;13.23;;;;;;;;;;5092265;28;20386;-74
2022/04/25 02:06:58;;;;;;;25.60;16.27;;;;;;;;;;5078240;28;20047;-74
2022/04/25 02:09:25;;;;;;;19.48;13.90;;;;;;;;;;5089252;28;20047;-73
2022/04/25 02:11:51;;;;;;;20.52;15.00;;;;;;;;;;5084746;28;20040;-73
2022/04/25 02:14:17;;;;;;;21.63;13.32;;;;;;;;;;5080930;28;20043;-73
2022/04/25 02:16:44;;;;;;;21.42;13.45;;;;;;;;;;5090323;28;20064;-73
2022/04/25 02:19:10;;;;;;;18.17;13.45;;;;;;;;;;5076143;28;20373;-74
2022/04/25 02:21:37;;;;;;;21.95;13.82;;;;;;;;;;5091434;28;20421;-73
2022/04/25 02:24:03;;;;;;;18.52;13.02;;;;;;;;;;5088570;28;20055;-73
2022/04/25 02:26:29;;;;;;;19.52;12.52;;;;;;;;;;5091458;28;20043;-73
2022/04/25 02:28:55;;;;;;;18.83;12.90;;;;;;;;;;5087793;28;20557;-73
2022/04/25 02:31:23;;;;;;;20.77;13.93;;;;;;;;;;5091038;28;20035;-73
2022/04/25 02:33:50;;;;;;;18.17;12.98;;;;;;;;;;5090258;28;20059;-73
2022/04/25 02:36:17;;;;;;;19.15;12.82;;;;;;;;;;5087191;28;20035;-73
2022/04/25 02:38:43;;;;;;;21.17;12.95;;;;;;;;;;5090676;28;20161;-73
2022/04/25 02:41:09;;;;;;;19.50;11.40;;;;;;;;;;5087518;28;20467;-73
2022/04/25 02:43:40;;;;;;;18.33;12.23;;;;;;;;;;5091477;28;20050;-73
2022/04/25 02:46:07;;;;;;;17.02;13.13;;;;;;;;;;5088940;28;20043;-73
2022/04/25 02:48:34;;;;;;;20.30;12.20;;;;;;;;;;5089304;28;20047;-73
2022/04/25 02:51:00;;;;;;;19.67;11.55;;;;;;;;;;5090834;28;20040;-73
2022/04/25 02:53:26;;;;;;;18.83;11.85;;;;;;;;;;5088391;28;20052;-73
2022/04/25 02:55:53;;;;;;;21.15;12.73;;;;;;;;;;5090629;28;20079;-74
2022/04/25 02:58:20;;;;;;;17.85;11.95;;;;;;;;;;5087953;28;20046;-73
2022/04/25 03:00:46;;;;;;;19.02;12.15;;;;;;;;;;5090043;28;20055;-73
2022/04/25 03:03:15;;;;;;;21.30;12.13;;;;;;;;;;5089503;28;20035;-73
2022/04/25 03:05:43;;;;;;;19.73;11.45;;;;;;;;;;5086565;28;20524;-73
2022/04/25 03:08:12;;;;;;;17.88;12.05;;;;;;;;;;5090408;28;20051;-73
2022/04/25 03:10:38;;;;;;;18.90;12.13;;;;;;;;;;5083119;28;20506;-73
2022/04/25 03:13:08;;;;;;;18.00;12.57;;;;;;;;;;5090128;28;20435;-73
2022/04/25 03:15:38;;;;;;;20.23;13.20;;;;;;;;;;5087816;28;20043;-73
2022/04/25 03:18:04;;;;;;;20.75;12.43;;;;;;;;;;5090244;28;20047;-73
2022/04/25 03:20:31;;;;;;;19.60;12.90;;;;;;;;;;5089447;28;20047;-73
2022/04/25 03:22:58;;;;;;;19.30;13.75;;;;;;;;;;5089982;28;20380;-73
2022/04/25 03:25:24;;;;;;;20.23;14.70;;;;;;;;;;5088826;28;20040;-73
2022/04/25 03:27:51;;;;;;;20.30;13.05;;;;;;;;;;5089699;28;20122;-73
2022/04/25 03:30:17;;;;;;;21.27;13.68;;;;;;;;;;5074589;28;20208;-73
2022/04/25 03:32:47;;;;;;;20.60;13.40;;;;;;;;;;5078506;28;20442;-73
2022/04/25 03:35:14;;;;;;;21.95;13.10;;;;;;;;;;5088763;28;20085;-73
2022/04/25 03:37:41;;;;;;;19.02;12.63;;;;;;;;;;5074278;28;20144;-73
2022/04/25 03:40:09;;;;;;;19.15;12.80;;;;;;;;;;5074062;28;20080;-73
2022/04/25 03:42:36;;;;;;;18.40;12.60;;;;;;;;;;5078030;28;20041;-73
2022/04/25 03:45:03;;;;;;;21.70;13.07;;;;;;;;;;5086733;28;20076;-73
2022/04/25 03:47:29;;;;;;;19.05;13.10;;;;;;;;;;5090010;28;20049;-73
2022/04/25 03:49:56;;;;;;;21.45;13.43;;;;;;;;;;5086887;28;20032;-73
2022/04/25 03:52:23;;;;;;;20.17;12.90;;;;;;;;;;5090222;28;20077;-73
2022/04/25 03:57:34;;;;;;;;;;;;;;;;;;5124363;28;20078;-73
2022/04/25 04:00:00;;;;;;;20.95;13.35;;;;;;;;;;5088150;28;20374;-73
2022/04/25 04:02:27;;;;;;;18.90;13.32;;;;;;;;;;5089901;28;20071;-73
2022/04/25 04:04:53;;;;;;;19.08;12.57;;;;;;;;;;5090134;28;20051;-73
2022/04/25 04:07:19;;;;;;;21.55;13.13;;;;;;;;;;5087422;28;20517;-73
2022/04/25 04:09:45;;;;;;;22.60;14.30;;;;;;;;;;5087196;28;20074;-73
2022/04/25 04:12:15;;;;;;;19.13;13.30;;;;;;;;;;5090741;28;20131;-73
2022/04/25 04:14:42;;;;;;;19.90;13.85;;;;;;;;;;5093455;28;20104;-74
2022/04/25 04:17:08;;;;;;;18.40;13.07;;;;;;;;;;5089654;28;20039;-74
2022/04/25 04:19:35;;;;;;;18.50;13.32;;;;;;;;;;5075201;28;20163;-73
2022/04/25 04:22:02;;;;;;;19.42;12.98;;;;;;;;;;5092633;28;20123;-73
2022/04/25 04:24:29;;;;;;;18.65;13.80;;;;;;;;;;5093172;28;20054;-73
2022/04/25 04:26:56;;;;;;;19.35;12.43;;;;;;;;;;5074909;28;20036;-73
2022/04/25 04:29:23;;;;;;;20.10;12.90;;;;;;;;;;5091646;28;20178;-73
2022/04/25 04:31:49;;;;;;;19.20;12.30;;;;;;;;;;5091255;28;20100;-73
2022/04/25 04:34:16;;;;;;;20.67;13.77;;;;;;;;;;5092715;28;20048;-74
2022/04/25 04:36:42;;;;;;;16.00;11.43;;;;;;;;;;5089839;28;20035;-74
2022/04/25 04:39:08;;;;;;;16.95;12.15;;;;;;;;;;5108279;28;20487;-74
2022/04/25 04:41:34;;;;;;;17.30;11.65;;;;;;;;;;5089502;28;20039;-74
2022/04/25 04:44:00;;;;;;;17.40;11.05;;;;;;;;;;5093187;28;20388;-74
2022/04/25 04:46:26;;;;;;;15.93;10.85;;;;;;;;;;5090124;28;20031;-74
2022/04/25 04:48:53;;;;;;;18.92;12.02;;;;;;;;;;5092939;28;20122;-74
2022/04/25 04:51:19;;;;;;;15.75;11.13;;;;;;;;;;5089355;28;20096;-74
2022/04/25 04:53:45;;;;;;;17.15;11.20;;;;;;;;;;5090136;28;20036;-74
2022/04/25 04:56:11;;;;;;;16.17;10.25;;;;;;;;;;5092434;28;20039;-74
2022/04/25 04:58:38;;;;;;;16.27;11.18;;;;;;;;;;5089402;28;20134;-74
2022/04/25 05:01:04;;;;;;;17.95;10.95;;;;;;;;;;5089199;28;20082;-73
2022/04/25 05:03:31;;;;;;;16.25;10.75;;;;;;;;;;5092361;28;20044;-73
2022/04/25 05:05:58;;;;;;;19.10;10.95;;;;;;;;;;5089967;28;20111;-73
2022/04/25 05:08:24;;;;;;;14.32;10.57;;;;;;;;;;5092246;28;20164;-73
2022/04/25 05:10:51;;;;;;;17.35;11.02;;;;;;;;;;5088969;28;20071;-73
2022/04/25 05:13:17;;;;;;;18.30;11.05;;;;;;;;;;5092272;28;20035;-73
2022/04/25 05:15:44;;;;;;;18.20;11.10;;;;;;;;;;5089742;28;20083;-73
2022/04/25 05:18:10;;;;;;;16.58;11.73;;;;;;;;;;5091426;28;20635;-73
2022/04/25 05:20:36;;;;;;;15.40;11.10;;;;;;;;;;5089290;28;20414;-73
2022/04/25 05:23:03;;;;;;;16.75;11.68;;;;;;;;;;5091794;28;20495;-73
2022/04/25 05:25:29;;;;;;;15.45;10.68;;;;;;;;;;5089355;28;20058;-73
2022/04/25 05:27:56;;;;;;;16.45;10.80;;;;;;;;;;5091042;28;20468;-74
2022/04/25 05:30:23;;;;;;;16.67;10.45;;;;;;;;;;5088226;28;20479;-73
2022/04/25 05:32:50;;;;;;;14.68;11.48;;;;;;;;;;5093862;27;20485;-74
2022/04/25 05:35:18;;;;;;;18.10;11.73;;;;;;;;;;5093633;28;20107;-74
2022/04/25 05:37:44;;;;;;;15.60;11.45;;;;;;;;;;5089838;28;20046;-74
2022/04/25 05:40:11;;;;;;;16.63;11.93;;;;;;;;;;5085335;28;20114;-74
2022/04/25 05:42:37;;;;;;;14.85;10.57;;;;;;;;;;5079812;28;20039;-73
2022/04/25 05:45:04;;;;;;;16.63;11.13;;;;;;;;;;5091175;28;20043;-73
2022/04/25 05:47:32;;;;;;;15.27;11.43;;;;;;;;;;5089386;28;20043;-73
2022/04/25 05:52:43;;;;;;;;;;;;;;;;;;5082156;28;20134;-73
2022/04/25 05:55:10;;;;;;;15.07;10.85;;;;;;;;;;5091677;28;20053;-74
2022/04/25 05:57:36;;;;;;;16.92;11.38;;;;;;;;;;5089741;28;20051;-74
2022/04/25 06:00:04;;;;;;;14.70;9.65;;;;;;;;;;5088320;28;20572;-74
2022/04/25 06:02:30;;;;;;;16.40;10.60;;;;;;;;;;5091252;28;20036;-74
2022/04/25 06:04:56;;;;;;;15.75;10.80;;;;;;;;;;5082823;28;20163;-74
2022/04/25 06:07:23;;;;;;;16.35;10.85;;;;;;;;;;5081357;28;20044;-74
2022/04/25 06:09:49;;;;;;;18.38;11.00;;;;;;;;;;5081101;28;20126;-73
2022/04/25 06:12:16;;;;;;;14.77;10.10;;;;;;;;;;5082559;28;20043;-74
2022/04/25 06:14:42;;;;;;;15.68;10.73;;;;;;;;;;5095845;28;20100;-74
2022/04/25 06:17:18;;;;;;;16.88;10.70;;;;;;;;;;5088689;28;20035;-74
2022/04/25 06:19:44;;;;;;;15.02;10.75;;;;;;;;;;5082545;28;20035;-74
2022/04/25 06:22:11;;;;;;;15.15;10.55;;;;;;;;;;5085945;28;20035;-74
2022/04/25 06:24:38;;;;;;;14.55;10.65;;;;;;;;;;5086244;28;20051;-74
2022/04/25 06:27:05;;;;;;;16.58;10.85;;;;;;;;;;5106699;27;20043;-74
2022/04/25 06:29:32;;;;;;;15.55;10.25;;;;;;;;;;5091232;27;20082;-74
2022/04/25 06:31:58;;;;;;;15.20;10.45;;;;;;;;;;5097538;27;20051;-73
2022/04/25 06:34:25;;;;;;;19.75;11.68;;;;;;;;;;5097203;27;20162;-74
2022/04/25 06:36:51;;;;;;;14.90;10.48;;;;;;;;;;5098793;27;20075;-74
2022/04/25 06:39:17;;;;;;;15.15;10.70;;;;;;;;;;5098520;27;20494;-73
2022/04/25 06:41:44;;;;;;;17.17;11.02;;;;;;;;;;5098506;27;20043;-74
2022/04/25 06:44:10;;;;;;;16.38;11.25;;;;;;;;;;5099086;27;20523;-74
2022/04/25 06:46:36;;;;;;;16.67;11.35;;;;;;;;;;5082742;28;20483;-73
2022/04/25 06:49:20;;;;;;;16.48;10.70;;;;;;;;;;5089526;28;20269;-74
2022/04/25 06:51:51;;;;;;;14.88;10.25;;;;;;;;;;5082917;28;20043;-73
2022/04/25 06:54:18;;;;;;;15.52;10.43;;;;;;;;;;5089022;28;20039;-73
2022/04/25 06:56:44;;;;;;;19.40;11.68;;;;;;;;;;5085505;28;20519;-73
2022/04/25 06:59:10;;;;;;;16.10;11.38;;;;;;;;;;5092289;28;20063;-73
2022/04/25 07:01:36;;;;;;;16.27;10.13;;;;;;;;;;5065409;28;20040;-73
2022/04/25 07:04:03;;;;;;;14.05;10.00;;;;;;;;;;5086489;28;20049;-73
2022/04/25 07:06:29;;;;;;;19.27;12.25;;;;;;;;;;5082896;28;20447;-73
2022/04/25 07:08:55;;;;;;;15.65;9.98;;;;;;;;;;5084943;28;20249;-73
2022/04/25 07:11:22;;;;;;;15.55;11.02;;;;;;;;;;5083663;28;20040;-73
2022/04/25 07:13:48;;;;;;;17.48;10.77;;;;;;;;;;5087416;28;20422;-73
2022/04/25 07:16:14;;;;;;;15.10;10.63;;;;;;;;;;5083011;28;20039;-73
2022/04/25 07:18:41;;;;;;;15.48;10.60;;;;;;;;;;5086331;28;20040;-73
2022/04/25 07:29:24;;;;;;;15.43;10.98;;;;;;;;;;5080691;28;20057;-73
2022/04/25 07:31:51;;;;;;;17.23;11.30;;;;;;;;;;5082808;28;20333;-73
2022/04/25 07:34:35;;;;;;;14.75;10.15;;;;;;;;;;5077075;28;20723;-73
2022/04/25 07:37:02;;;;;;;20.60;12.00;;;;;;;;;;5086786;28;20048;-73
2022/04/25 07:39:28;;;;;;;17.80;11.63;;;;;;;;;;5078644;28;20040;-73
2022/04/25 07:41:54;;;;;;;18.85;12.38;;;;;;;;;;5086515;28;20517;-72
2022/04/25 07:44:20;;;;;;;17.17;12.35;;;;;;;;;;5088417;28;20043;-73
2022/04/25 07:46:46;;;;;;;19.05;12.77;;;;;;;;;;5089744;28;20039;-73
2022/04/25 07:49:13;;;;;;;19.65;12.05;;;;;;;;;;5092597;28;20042;-73
2022/04/25 07:51:40;;;;;;;17.67;12.30;;;;;;;;;;5092184;28;20035;-73
2022/04/25 07:54:08;;;;;;;19.33;12.52;;;;;;;;;;5091917;28;20049;-72
2022/04/25 07:56:34;;;;;;;20.70;13.00;;;;;;;;;;5092221;28;20804;-73
2022/04/25 07:59:01;;;;;;;20.02;12.70;;;;;;;;;;5101012;28;20042;-73
2022/04/25 08:01:27;;;;;;;16.65;12.65;;;;;;;;;;5088946;28;20031;-74
2022/04/25 08:03:54;;;;;;;23.13;13.32;;;;;;;;;;5093224;28;20047;-72
2022/04/25 08:06:20;;;;;;;17.80;12.75;;;;;;;;;;5092925;28;20093;-73
2022/04/25 08:08:48;;;;;;;19.92;12.48;;;;;;;;;;5118701;27;20336;-72
2022/04/25 08:11:15;;;;;;;23.20;13.93;;;;;;;;;;5087018;28;20092;-72
2022/04/25 08:19:10;;;;;;;20.05;12.70;;;;;;;;;;5095346;28;20047;-72
2022/04/25 08:21:39;;;;;;;22.08;13.57;;;;;;;;;;5083528;28;20032;-73
2022/04/25 08:24:06;;;;;;;20.63;13.32;;;;;;;;;;5077136;28;20406;-73
2022/04/25 08:26:32;;;;;;;20.75;13.27;;;;;;;;;;5093686;28;20430;-73
2022/04/25 08:28:59;;;;;;;21.27;13.23;;;;;;;;;;5092962;28;20039;-73
2022/04/25 08:31:26;;;;;;;20.70;12.57;;;;;;;;;;5091186;28;20049;-72
2022/04/25 08:33:52;;;;;;;19.05;12.43;;;;;;;;;;5088700;28;20119;-72
2022/04/25 08:36:19;;;;;;;20.25;13.70;;;;;;;;;;5096292;28;20039;-73
2022/04/25 08:38:45;;;;;;;19.33;12.90;;;;;;;;;;5101260;28;20100;-74
2022/04/25 08:41:13;;;;;;;19.73;12.95;;;;;;;;;;5092141;28;20039;-72
2022/04/25 08:43:39;;;;;;;19.83;12.40;;;;;;;;;;5088405;28;20062;-72
2022/04/25 08:46:07;;;;;;;20.05;13.10;;;;;;;;;;5092241;28;20129;-73
2022/04/25 08:48:34;;;;;;;18.48;13.13;;;;;;;;;;5089042;28;20061;-73
2022/04/25 08:51:01;;;;;;;18.75;12.52;;;;;;;;;;5090020;28;20499;-73
2022/04/25 08:53:27;;;;;;;19.70;13.18;;;;;;;;;;5089022;28;20039;-73
2022/04/25 08:55:54;;;;;;;21.40;12.80;;;;;;;;;;5091222;28;20067;-73
2022/04/25 08:58:22;;;;;;;18.85;12.05;;;;;;;;;;5091514;28;20038;-73
2022/04/25 09:00:48;;;;;;;18.65;11.68;;;;;;;;;;5090624;28;20039;-73
2022/04/25 09:03:15;;;;;;;19.95;12.70;;;;;;;;;;5087966;28;20402;-73
2022/04/25 09:05:42;;;;;;;18.27;12.23;;;;;;;;;;5091724;28;20081;-73
2022/04/25 09:08:08;;;;;;;20.92;12.43;;;;;;;;;;5085987;28;20047;-73
2022/04/25 09:10:35;;;;;;;18.80;11.85;;;;;;;;;;5087748;28;20526;-72
2022/04/25 09:13:01;;;;;;;19.02;12.15;;;;;;;;;;5100783;27;20043;-72
2022/04/25 09:15:27;;;;;;;19.42;11.20;;;;;;;;;;5100231;27;20103;-73
2022/04/25 09:17:55;;;;;;;15.63;10.20;;;;;;;;;;5098912;27;20027;-73
2022/04/25 09:20:21;;;;;;;15.00;9.88;;;;;;;;;;5097015;27;20148;-73
2022/04/25 09:22:48;;;;;;;17.33;10.95;;;;;;;;;;5098440;28;20092;-72
2022/04/25 09:25:15;;;;;;;14.65;8.30;;;;;;;;;;5094376;27;20442;-72
2022/04/25 09:27:42;;;;;;;14.35;8.75;;;;;;;;;;5097418;28;20405;-74
2022/04/25 09:30:22;;;;;;;13.18;8.50;;;;;;;;;;5087298;28;20031;-73
2022/04/25 09:32:49;;;;;;;12.98;9.57;;;;;;;;;;5094137;28;20432;-73
2022/04/25 09:35:28;;;;;;;13.32;9.52;;;;;;;;;;5106454;27;20130;-72
2022/04/25 09:37:55;;;;;;;14.57;8.20;;;;;;;;;;5100752;27;20066;-73
2022/04/25 09:40:22;;;;;;;13.07;8.75;;;;;;;;;;5094114;27;20075;-73
2022/04/25 09:43:03;;;;;;;13.10;8.90;;;;;;;;;;5096522;27;20032;-73
2022/04/25 09:45:29;;;;;;;16.08;9.88;;;;;;;;;;5085754;28;20044;-73
2022/04/25 09:47:57;;;;;;;13.60;9.05;;;;;;;;;;5084738;28;20077;-73
2022/04/25 09:50:27;;;;;;;12.52;9.32;;;;;;;;;;5083222;28;20040;-73
2022/04/25 09:52:55;;;;;;;14.70;9.38;;;;;;;;;;5083825;28;20380;-73
2022/04/25 09:55:21;;;;;;;13.57;9.73;;;;;;;;;;5081045;28;20036;-73
2022/04/25 09:57:50;;;;;;;13.40;9.38;;;;;;;;;;5085426;28;20040;-73
2022/04/25 10:00:38;;;;;;;12.82;9.05;;;;;;;;;;5080254;28;20083;-73
2022/04/25 10:03:08;;;;;;;13.13;8.70;;;;;;;;;;5119050;27;20444;-73
2022/04/25 10:05:45;;;;;;;13.43;9.18;;;;;;;;;;5087270;28;20044;-73
2022/04/25 10:08:12;;;;;;;13.73;9.77;;;;;;;;;;5081440;28;20051;-73
2022/04/25 10:10:48;;;;;;;13.07;8.45;;;;;;;;;;5083621;28;20104;-72
2022/04/25 10:13:15;;;;;;;12.60;8.95;;;;;;;;;;5083880;28;20035;-73
2022/04/25 10:15:41;;;;;;;16.45;9.02;;;;;;;;;;5086940;28;20044;-74
2022/04/25 10:18:09;;;;;;;12.63;8.85;;;;;;;;;;5081465;28;20037;-73
2022/04/25 10:20:36;;;;;;;13.13;9.20;;;;;;;;;;5083493;28;20156;-72
2022/04/25 10:23:06;;;;;;;13.40;8.80;;;;;;;;;;5083677;28;20398;-73
2022/04/25 10:25:32;;;;;;;14.20;8.63;;;;;;;;;;5083476;28;20043;-74
2022/04/25 10:28:00;;;;;;;13.88;8.45;;;;;;;;;;5084172;28;20106;-73
2022/04/25 10:30:31;;;;;;;12.05;8.23;;;;;;;;;;5093208;27;20039;-73
2022/04/25 10:33:15;;;;;;;11.82;8.23;;;;;;;;;;5080378;28;20039;-73
2022/04/25 10:35:42;;;;;;;10.32;7.35;;;;;;;;;;5097943;27;20044;-74
2022/04/25 10:44:28;;;;;;;10.57;7.68;;;;;;;;;;5098643;27;20039;-73
2022/04/25 10:47:07;;;;;;;12.50;7.97;;;;;;;;;;5100085;28;20130;-74
2022/04/25 10:49:36;;;;;;;11.80;7.82;;;;;;;;;;5091225;28;20039;-73
2022/04/25 10:52:03;;;;;;;13.43;8.20;;;;;;;;;;5097136;28;20043;-73
2022/04/25 10:54:49;;;;;;;11.57;8.50;;;;;;;;;;5096839;28;20035;-73
2022/04/25 10:57:16;;;;;;;11.50;7.75;;;;;;;;;;5118465;27;20036;-74
2022/04/25 10:59:43;;;;;;;12.32;7.78;;;;;;;;;;5085209;28;20043;-73
2022/04/25 11:02:22;;;;;;;12.20;7.72;;;;;;;;;;5088143;28;20059;-73
2022/04/25 11:05:08;;;;;;;10.77;7.38;;;;;;;;;;5094983;28;20047;-73
2022/04/25 11:07:35;;;;;;;13.93;7.90;;;;;;;;;;5099448;28;20414;-73
2022/04/25 11:10:02;;;;;;;11.73;8.00;;;;;;;;;;5094671;28;20043;-73
2022/04/25 11:12:47;;;;;;;10.85;7.50;;;;;;;;;;5097666;28;20119;-73
2022/04/25 11:15:13;;;;;;;11.63;7.50;;;;;;;;;;5076457;28;20071;-74
2022/04/25 11:17:59;;;;;;;10.88;7.38;;;;;;;;;;5101910;28;20540;-73
2022/04/25 11:20:44;;;;;;;11.63;7.30;;;;;;;;;;5093757;27;20063;-74
2022/04/25 11:23:26;;;;;;;10.32;7.63;;;;;;;;;;5101434;27;20051;-73
2022/04/25 11:25:55;;;;;;;12.63;7.88;;;;;;;;;;5102540;27;20266;-74
2022/04/25 11:28:22;;;;;;;12.82;7.72;;;;;;;;;;5104246;27;20497;-73
2022/04/25 11:31:07;;;;;;;13.10;7.72;;;;;;;;;;5096283;27;20035;-74
2022/04/25 11:33:42;;;;;;;;;;;;;;;;;;5087121;28;20060;-74
2022/04/25 11:36:11;;;;;;;11.23;7.65;;;;;;;;;;5098754;28;20019;-74
2022/04/25 11:41:26;;;;;;;13.93;8.48;;;;;;;;;;5076208;28;20139;-73
2022/04/25 11:43:52;;;;;;;11.77;7.90;;;;;;;;;;5088247;28;20491;-74
2022/04/25 11:46:18;;;;;;;14.50;8.57;;;;;;;;;;5097272;28;20040;-74
2022/04/25 11:48:51;;;;;;;11.48;7.75;;;;;;;;;;5095617;28;20047;-74
2022/04/25 11:51:30;;;;;;;12.95;8.75;;;;;;;;;;5089588;28;20036;-74
2022/04/25 11:54:03;;;;;;;12.63;8.20;;;;;;;;;;5096828;28;20487;-74
2022/04/25 11:56:29;;;;;;;13.93;8.40;;;;;;;;;;5098354;28;20126;-74
2022/04/25 11:58:56;;;;;;;12.02;8.20;;;;;;;;;;5082783;28;20421;-74
2022/04/25 12:01:36;;;;;;;12.50;8.68;;;;;;;;;;5083043;28;20029;-74
2022/04/25 12:04:15;;;;;;;13.85;8.98;;;;;;;;;;5113444;27;20070;-74
2022/04/25 12:06:51;;;;;;;13.15;8.48;;;;;;;;;;5066117;28;20050;-74
2022/04/25 12:17:44;;;;;;;12.30;9.52;;;;;;;;;;5075316;28;20180;-74
2022/04/25 12:20:12;;;;;;;14.32;9.52;;;;;;;;;;5087188;28;20510;-74
2022/04/25 12:22:39;;;;;;;13.38;9.45;;;;;;;;;;5089768;28;20036;-74
2022/04/25 12:25:16;;;;;;;14.85;9.75;;;;;;;;;;5090172;28;20062;-74
2022/04/25 12:28:00;;;;;;;11.70;8.43;;;;;;;;;;5088914;28;20032;-74
2022/04/25 12:30:28;;;;;;;12.60;8.90;;;;;;;;;;5088387;28;20172;-73
2022/04/25 12:33:15;;;;;;;14.65;8.50;;;;;;;;;;5089302;28;20040;-74
2022/04/25 12:35:42;;;;;;;13.70;9.18;;;;;;;;;;5085312;28;20048;-74
2022/04/25 12:38:09;;;;;;;11.73;8.32;;;;;;;;;;5094559;28;20039;-73
2022/04/25 12:40:56;;;;;;;12.80;8.88;;;;;;;;;;5091016;28;20059;-74
2022/04/25 12:43:38;;;;;;;12.23;8.48;;;;;;;;;;5088094;28;20604;-73
2022/04/25 12:46:12;;;;;;;12.45;9.00;;;;;;;;;;5094845;28;20089;-73
2022/04/25 12:48:57;;;;;;;13.18;8.82;;;;;;;;;;5093250;28;20136;-73
2022/04/25 12:51:30;;;;;;;12.35;8.63;;;;;;;;;;5088081;28;20249;-73
2022/04/25 12:53:57;;;;;;;13.02;9.70;;;;;;;;;;5090736;28;20427;-73
2022/04/25 12:56:27;;;;;;;13.05;9.40;;;;;;;;;;5091091;28;20481;-73
2022/04/25 12:58:53;;;;;;;13.07;9.13;;;;;;;;;;5089166;28;20058;-73
2022/04/25 13:01:36;;;;;;;14.80;8.82;;;;;;;;;;5090425;28;20475;-74
2022/04/25 13:04:11;;;;;;;12.73;8.70;;;;;;;;;;5090470;28;20046;-73
2022/04/25 13:06:37;;;;;;;15.05;9.38;;;;;;;;;;5092464;28;20089;-74
2022/04/25 13:09:04;;;;;;;14.57;8.95;;;;;;;;;;5092752;28;20474;-76
2022/04/25 13:11:31;;;;;;;12.38;8.38;;;;;;;;;;5088816;28;20039;-75
2022/04/25 13:13:57;;;;;;;13.05;8.10;;;;;;;;;;5092332;28;20535;-74
2022/04/25 13:16:24;;;;;;;12.57;7.93;;;;;;;;;;5092098;28;20071;-74
2022/04/25 13:18:50;;;;;;;12.57;7.43;;;;;;;;;;5092434;28;20054;-74
2022/04/25 13:21:17;;;;;;;13.45;8.38;;;;;;;;;;5079767;28;20036;-73
2022/04/25 13:23:43;;;;;;;12.63;7.88;;;;;;;;;;5089677;28;20049;-74
2022/04/25 13:26:09;;;;;;;14.40;8.18;;;;;;;;;;5094189;28;20039;-74
2022/04/25 13:28:36;;;;;;;11.52;7.60;;;;;;;;;;5093783;28;20058;-74
2022/04/25 13:31:02;;;;;;;11.18;7.18;;;;;;;;;;5080801;28;20495;-73
2022/04/25 13:33:29;;;;;;;12.60;7.22;;;;;;;;;;5083895;28;20044;-73
2022/04/25 13:35:55;;;;;;;11.23;7.97;;;;;;;;;;5088301;28;20044;-73
2022/04/25 13:38:21;;;;;;;11.32;7.68;;;;;;;;;;5086198;28;20047;-73
2022/04/25 13:40:47;;;;;;;11.35;7.75;;;;;;;;;;5084968;28;20047;-73
2022/04/25 13:43:14;;;;;;;10.02;6.75;;;;;;;;;;5088323;28;20170;-74
2022/04/25 13:45:41;;;;;;;11.48;6.78;;;;;;;;;;5088471;28;20043;-73
2022/04/25 13:48:09;;;;;;;12.07;7.35;;;;;;;;;;5088472;28;20101;-73
2022/04/25 13:50:35;;;;;;;11.95;7.40;;;;;;;;;;5081947;28;20101;-73
2022/04/25 13:53:04;;;;;;;12.98;7.95;;;;;;;;;;5079524;28;20040;-73
2022/04/25 13:55:34;;;;;;;11.73;7.75;;;;;;;;;;5086610;28;20466;-74
2022/04/25 13:58:01;;;;;;;12.95;7.53;;;;;;;;;;5071664;28;20071;-73
2022/04/25 14:00:28;;;;;;;12.73;8.02;;;;;;;;;;5084749;28;20098;-73
2022/04/25 14:03:06;;;;;;;12.32;7.65;;;;;;;;;;5088120;28;20040;-73
2022/04/25 14:05:35;;;;;;;10.88;8.07;;;;;;;;;;5071978;28;20059;-73
2022/04/25 14:08:02;;;;;;;14.00;7.47;;;;;;;;;;5083632;28;20040;-74
2022/04/25 14:10:28;;;;;;;11.80;7.80;;;;;;;;;;5077444;28;20040;-74
2022/04/25 14:12:54;;;;;;;13.02;8.18;;;;;;;;;;5084303;28;20043;-74
2022/04/25 14:15:21;;;;;;;13.27;7.68;;;;;;;;;;5071833;28;20040;-73
2022/04/25 14:17:47;;;;;;;13.13;8.75;;;;;;;;;;5088295;28;20039;-74
2022/04/25 14:20:14;;;;;;;13.98;7.90;;;;;;;;;;5084358;28;20048;-74
2022/04/25 14:22:41;;;;;;;12.77;8.35;;;;;;;;;;5087526;28;20040;-74
2022/04/25 14:25:08;;;;;;;11.95;8.23;;;;;;;;;;5087878;28;20044;-74
2022/04/25 14:27:37;;;;;;;11.70;8.18;;;;;;;;;;5087409;28;20055;-74
2022/04/25 14:30:08;;;;;;;12.95;8.13;;;;;;;;;;5084178;28;20050;-74
2022/04/25 14:32:35;;;;;;;11.48;8.25;;;;;;;;;;5087618;28;20141;-74
2022/04/25 14:35:02;;;;;;;13.10;8.90;;;;;;;;;;5070783;28;20051;-73
2022/04/25 14:37:29;;;;;;;13.65;8.30;;;;;;;;;;5087236;28;20047;-73
2022/04/25 14:39:55;;;;;;;13.30;8.30;;;;;;;;;;5078271;28;20344;-73
2022/04/25 14:42:21;;;;;;;11.70;7.50;;;;;;;;;;5086377;28;20044;-73
2022/04/25 14:44:47;;;;;;;12.25;8.30;;;;;;;;;;5084859;28;20047;-74
2022/04/25 14:47:13;;;;;;;11.30;7.93;;;;;;;;;;5086193;28;20051;-74
2022/04/25 14:55:10;;;;;;;13.07;8.93;;;;;;;;;;5082676;28;19920;-74
2022/04/25 14:57:36;;;;;;;11.43;8.40;;;;;;;;;;5087311;28;20517;-73
2022/04/25 15:00:04;;;;;;;14.90;8.82;;;;;;;;;;5083511;28;20043;-73
2022/04/25 15:02:30;;;;;;;11.75;8.25;;;;;;;;;;5087336;28;20162;-73
2022/04/25 15:04:57;;;;;;;12.85;8.95;;;;;;;;;;5080942;28;20044;-73
2022/04/25 15:07:23;;;;;;;12.32;8.75;;;;;;;;;;5086442;28;20078;-73
2022/04/25 15:09:49;;;;;;;13.38;8.55;;;;;;;;;;5082416;28;20097;-74
2022/04/25 15:12:15;;;;;;;12.45;8.68;;;;;;;;;;5085149;28;20040;-73
2022/04/25 15:14:41;;;;;;;12.45;9.13;;;;;;;;;;5082209;28;20079;-74